createdAt,value
2018-04-16T05:03:10.856Z,21.23
2018-04-16T05:05:38.368Z,19.30
2018-04-16T05:08:05.880Z,13.93
2018-04-16T05:10:34.257Z,21.63
2018-04-16T05:13:01.765Z,18.00
2018-04-16T05:15:29.578Z,14.47
2018-04-16T05:17:57.085Z,19.20
2018-04-16T05:20:24.914Z,17.40
2018-04-16T05:22:52.468Z,20.50
2018-04-16T05:25:20.283Z,13.67
2018-04-16T05:27:47.908Z,22.97
2018-04-16T05:30:15.505Z,19.20
2018-04-16T05:32:43.428Z,21.77
2018-04-16T05:35:10.999Z,14.97
2018-04-16T05:37:38.494Z,15.50
2018-04-16T05:40:06.595Z,18.67
2018-04-16T05:42:34.467Z,16.23
2018-04-16T05:45:02.360Z,18.07
2018-04-16T05:47:30.208Z,18.40
2018-04-16T05:49:58.085Z,15.50
2018-04-16T05:52:27.061Z,14.70
2018-04-16T05:54:55.640Z,10.87
2018-04-16T05:57:23.135Z,12.37
2018-04-16T05:59:50.667Z,15.30
2018-04-16T06:02:18.308Z,12.10
2018-04-16T06:04:46.594Z,13.30
2018-04-16T06:07:15.259Z,14.50
2018-04-16T06:09:42.828Z,17.47
2018-04-16T06:12:10.718Z,14.43
2018-04-16T06:14:38.810Z,13.80
2018-04-16T06:17:06.885Z,13.87
2018-04-16T06:19:34.389Z,15.00
2018-04-16T06:22:02.483Z,19.23
2018-04-16T06:24:30.120Z,15.60
2018-04-16T06:26:59.688Z,12.53
2018-04-16T06:29:27.356Z,15.43
2018-04-16T06:31:54.898Z,13.43
2018-04-16T06:34:22.384Z,12.67
2018-04-16T06:36:49.937Z,13.87
2018-04-16T06:39:17.433Z,11.90
2018-04-16T06:41:45.938Z,20.73
2018-04-16T06:44:13.453Z,16.80
2018-04-16T06:46:41.004Z,13.20
2018-04-16T06:49:10.062Z,9.63
2018-04-16T06:51:37.593Z,14.47
2018-04-16T06:54:05.337Z,12.63
2018-04-16T06:56:33.395Z,12.37
2018-04-16T06:59:01.958Z,15.00
2018-04-16T07:01:29.700Z,16.93
2018-04-16T07:03:57.667Z,13.67
2018-04-16T07:06:25.241Z,12.33
2018-04-16T07:08:53.081Z,15.40
2018-04-16T07:11:20.909Z,20.17
2018-04-16T07:13:49.178Z,14.03
2018-04-16T07:16:16.999Z,18.00
2018-04-16T07:18:44.818Z,16.80
2018-04-16T07:21:13.578Z,23.00
2018-04-16T07:23:41.535Z,16.70
2018-04-16T07:26:09.459Z,27.90
2018-04-16T07:28:37.219Z,19.17
2018-04-16T07:31:04.814Z,16.47
2018-04-16T07:33:32.727Z,20.10
2018-04-16T07:36:00.492Z,23.00
2018-04-16T07:38:28.484Z,20.20
2018-04-16T07:40:56.009Z,22.10
2018-04-16T07:43:23.593Z,20.50
2018-04-16T07:45:51.989Z,22.17
2018-04-16T07:48:19.490Z,28.17
2018-04-16T07:50:47.288Z,21.03
2018-04-16T07:53:14.798Z,21.43
2018-04-16T07:55:42.848Z,22.47
2018-04-16T07:58:10.365Z,22.60
2018-04-16T08:00:37.892Z,25.00
2018-04-16T08:03:05.391Z,21.30
2018-04-16T08:05:32.883Z,24.73
2018-04-16T08:08:00.617Z,25.27
2018-04-16T08:10:28.113Z,26.20
2018-04-16T08:12:55.941Z,25.83
2018-04-16T08:15:24.196Z,28.27
2018-04-16T08:17:53.649Z,36.40
2018-04-16T08:20:21.166Z,21.97
2018-04-16T08:22:48.694Z,25.57
2018-04-16T08:25:16.229Z,24.70
2018-04-16T08:27:44.279Z,25.57
2018-04-16T08:30:11.787Z,26.07
2018-04-16T08:32:39.339Z,25.47
2018-04-16T08:35:07.387Z,26.03
2018-04-16T08:37:35.205Z,23.13
2018-04-16T08:40:02.721Z,24.17
2018-04-16T08:42:30.670Z,23.87
2018-04-16T08:44:58.162Z,27.10
2018-04-16T08:47:25.750Z,24.10
2018-04-16T08:49:53.264Z,37.70
2018-04-16T08:52:20.993Z,23.50
2018-04-16T08:54:49.398Z,23.67
2018-04-16T08:57:17.920Z,24.43
2018-04-16T08:59:45.420Z,25.73
2018-04-16T09:02:13.253Z,26.37
2018-04-16T09:04:40.765Z,22.93
2018-04-16T09:07:08.299Z,24.20
2018-04-16T09:09:37.179Z,21.77
2018-04-16T09:12:04.833Z,24.10
2018-04-16T09:14:33.256Z,21.90
2018-04-16T09:17:00.996Z,20.87
2018-04-16T09:19:28.501Z,21.50
2018-04-16T09:21:56.409Z,19.70
2018-04-16T09:24:24.802Z,20.07
2018-04-16T09:26:52.329Z,19.87
2018-04-16T09:29:20.318Z,20.27
2018-04-16T09:31:47.825Z,20.53
2018-04-16T09:34:15.315Z,19.60
2018-04-16T09:36:43.559Z,18.93
2018-04-16T09:39:11.324Z,17.37
2018-04-16T09:41:38.843Z,18.17
2018-04-16T09:44:06.355Z,18.83
2018-04-16T09:46:34.196Z,19.50
2018-04-16T09:49:01.944Z,17.83
2018-04-16T09:51:29.482Z,19.17
2018-04-16T09:53:57.166Z,17.40
2018-04-16T09:56:25.020Z,16.97
2018-04-16T09:58:52.907Z,18.00
2018-04-16T10:01:22.075Z,18.60
2018-04-16T10:03:50.043Z,20.83
2018-04-16T10:06:18.726Z,16.30
2018-04-16T10:08:46.713Z,16.30
2018-04-16T10:11:14.492Z,15.80
2018-04-16T10:13:42.444Z,14.93
2018-04-16T10:16:10.285Z,17.47
2018-04-16T10:18:37.852Z,16.07
2018-04-16T10:21:06.110Z,16.97
2018-04-16T10:23:33.613Z,16.13
2018-04-16T10:26:01.110Z,19.93
2018-04-16T10:28:29.138Z,16.50
2018-04-16T10:30:56.642Z,15.70
2018-04-16T10:33:24.466Z,16.07
2018-04-16T10:35:52.897Z,16.30
2018-04-16T10:38:20.998Z,17.50
2018-04-16T10:40:48.970Z,18.00
2018-04-16T10:43:16.469Z,16.27
2018-04-16T13:45:56.428Z,11.13
2018-04-16T13:48:24.406Z,12.57
2018-04-16T13:50:51.918Z,11.37
2018-04-16T13:53:19.475Z,11.93
2018-04-16T13:55:47.009Z,12.77
2018-04-16T13:58:20.748Z,12.70
2018-04-16T14:00:55.068Z,12.17
2018-04-16T14:03:28.461Z,13.93
2018-04-16T14:05:56.285Z,12.90
2018-04-16T14:08:24.193Z,14.10
2018-04-16T14:10:52.340Z,12.60
2018-04-16T14:13:25.717Z,14.20
2018-04-16T14:16:05.501Z,11.37
2018-04-16T14:18:33.021Z,11.40
2018-04-16T14:21:07.559Z,13.03
2018-04-16T14:23:35.404Z,12.33
2018-04-16T14:26:03.224Z,15.23
2018-04-16T14:28:30.725Z,15.77
2018-04-16T14:30:58.521Z,15.83
2018-04-16T14:33:26.448Z,20.90
2018-04-16T14:35:54.293Z,22.90
2018-04-16T14:38:21.759Z,32.37
2018-04-16T14:40:55.742Z,21.10
2018-04-16T14:43:29.255Z,23.53
2018-04-16T14:46:03.088Z,19.67
2018-04-16T14:48:30.699Z,26.83
2018-04-16T14:50:58.641Z,18.37
2018-04-16T14:53:27.021Z,20.93
2018-04-16T14:56:01.379Z,20.03
2018-04-16T14:58:29.033Z,19.93
2018-04-16T15:00:57.734Z,19.30
2018-04-16T15:03:31.124Z,19.40
2018-04-16T15:05:58.651Z,18.67
2018-04-16T15:08:32.553Z,21.27
2018-04-16T15:11:00.335Z,19.80
2018-04-16T15:13:34.020Z,19.40
2018-04-16T15:16:01.581Z,16.77
2018-04-16T15:18:29.482Z,18.63
2018-04-16T15:20:56.976Z,17.17
2018-04-16T15:23:24.711Z,20.47
2018-04-16T15:25:52.418Z,17.87
2018-04-16T15:28:20.226Z,18.60
2018-04-16T15:30:47.744Z,18.27
2018-04-16T15:33:16.279Z,17.17
2018-04-16T15:35:44.083Z,17.13
2018-04-16T15:38:14.092Z,17.20
2018-04-16T15:40:41.948Z,17.80
2018-04-16T15:43:09.739Z,18.17
2018-04-16T15:45:38.541Z,16.67
2018-04-16T15:48:06.254Z,17.63
2018-04-16T15:50:33.982Z,16.80
2018-04-16T15:53:01.614Z,16.27
2018-04-16T15:55:30.213Z,15.00
2018-04-16T15:57:57.739Z,20.83
2018-04-16T16:00:25.266Z,14.37
2018-04-16T16:02:52.767Z,14.37
2018-04-16T16:05:20.748Z,15.30
2018-04-16T16:07:48.346Z,14.17
2018-04-16T16:10:15.972Z,14.80
2018-04-16T16:12:43.842Z,14.57
2018-04-16T16:15:11.386Z,14.33
2018-04-16T16:17:40.602Z,13.77
2018-04-16T16:20:08.120Z,15.10
2018-04-16T16:22:35.861Z,14.67
2018-04-16T16:25:03.354Z,17.03
2018-04-16T16:27:31.943Z,14.40
2018-04-16T16:29:59.442Z,12.97
2018-04-16T16:32:27.189Z,13.03
2018-04-16T16:34:54.874Z,11.83
2018-04-16T16:37:23.636Z,14.00
2018-04-16T16:39:51.149Z,14.00
2018-04-16T16:42:18.992Z,13.10
2018-04-16T16:44:46.843Z,11.40
2018-04-16T16:47:14.714Z,14.30
2018-04-16T16:49:42.232Z,14.33
2018-04-16T16:52:10.331Z,13.90
2018-04-16T16:54:38.321Z,11.40
2018-04-16T16:57:05.891Z,13.60
2018-04-16T16:59:33.800Z,15.67
2018-04-16T17:02:01.673Z,13.90
2018-04-16T17:04:29.181Z,12.23
2018-04-16T17:06:57.002Z,12.30
2018-04-16T17:09:24.928Z,12.67
2018-04-16T17:11:53.138Z,12.93
2018-04-16T17:14:20.675Z,14.43
2018-04-16T17:16:49.291Z,12.60
2018-04-16T17:19:17.020Z,12.37
2018-04-16T17:21:44.920Z,14.07
2018-04-16T17:24:12.720Z,13.13
2018-04-16T17:26:40.264Z,11.23
2018-04-16T17:29:08.086Z,19.53
2018-04-16T17:31:36.819Z,12.87
2018-04-16T17:34:04.360Z,12.20
2018-04-16T17:36:32.403Z,16.23
2018-04-16T17:39:00.801Z,13.17
2018-04-16T17:41:28.530Z,14.50
2018-04-16T17:43:56.043Z,19.40
2018-04-16T17:46:23.551Z,15.87
2018-04-16T17:48:51.626Z,12.57
2018-04-16T17:51:19.147Z,14.23
2018-04-16T17:53:46.977Z,14.03
2018-04-16T17:56:14.495Z,14.60
2018-04-16T17:58:42.320Z,16.97
2018-04-16T18:01:09.821Z,22.10
2018-04-16T18:03:37.638Z,13.77
2018-04-16T18:06:05.389Z,15.07
2018-04-16T18:08:33.268Z,18.10
2018-04-16T18:11:00.828Z,13.67
2018-04-16T18:13:28.679Z,16.33
2018-04-16T18:15:56.578Z,14.70
2018-04-16T18:18:26.257Z,15.57
2018-04-16T18:20:54.961Z,15.93
2018-04-16T18:23:22.948Z,14.40
2018-04-16T18:25:51.027Z,15.37
2018-04-16T18:28:19.658Z,15.87
2018-04-16T18:30:47.575Z,15.67
2018-04-16T18:33:15.132Z,17.20
2018-04-16T18:35:42.736Z,16.10
2018-04-16T18:38:11.334Z,17.00
2018-04-16T18:40:38.896Z,16.10
2018-04-16T18:43:06.760Z,17.93
2018-04-16T18:45:34.648Z,19.77
2018-04-16T18:48:03.074Z,27.77
2018-04-16T18:50:31.502Z,19.33
2018-04-16T18:52:59.019Z,19.83
2018-04-16T18:55:26.718Z,19.30
2018-04-16T18:57:55.572Z,19.07
2018-04-16T19:00:23.081Z,18.23
2018-04-16T19:02:51.193Z,18.90
2018-04-16T19:05:19.694Z,19.23
2018-04-16T19:07:48.516Z,19.40
2018-04-16T19:10:16.078Z,19.70
2018-04-16T19:12:43.744Z,29.60
2018-04-16T19:15:11.371Z,20.43
2018-04-16T19:17:44.986Z,27.67
2018-04-16T19:20:12.767Z,19.60
2018-04-16T19:22:40.498Z,21.13
2018-04-16T19:25:08.348Z,27.83
2018-04-16T19:27:41.829Z,18.87
2018-04-16T19:30:09.353Z,29.67
2018-04-16T19:32:42.976Z,19.93
2018-04-16T19:35:12.626Z,20.33
2018-04-16T19:37:46.750Z,29.57
2018-04-16T19:40:14.686Z,20.20
2018-04-16T19:42:42.456Z,20.80
2018-04-16T19:45:10.676Z,18.60
2018-04-16T19:47:38.224Z,24.77
2018-04-16T19:50:07.655Z,20.40
2018-04-16T19:52:35.177Z,20.80
2018-04-16T19:55:03.207Z,20.07
2018-04-16T19:57:36.754Z,20.60
2018-04-16T20:00:04.487Z,19.87
2018-04-16T20:02:38.024Z,31.53
2018-04-16T20:05:05.685Z,22.17
2018-04-16T20:07:33.356Z,30.10
2018-04-16T20:10:01.268Z,22.10
2018-04-16T20:12:29.569Z,31.80
2018-04-16T20:14:57.382Z,22.63
2018-04-16T20:17:25.691Z,30.33
2018-04-16T20:19:54.350Z,21.17
2018-04-16T20:22:21.858Z,22.80
2018-04-16T20:24:49.435Z,29.63
2018-04-16T20:27:17.756Z,21.53
2018-04-16T20:29:45.476Z,21.67
2018-04-16T20:32:13.316Z,21.03
2018-04-16T20:34:40.820Z,32.63
2018-04-16T20:37:12.949Z,22.23
2018-04-16T20:39:40.500Z,21.60
2018-04-16T20:42:08.588Z,22.00
2018-04-16T20:44:36.197Z,24.97
2018-04-16T20:47:05.225Z,23.37
2018-04-16T20:49:32.743Z,24.27
2018-04-16T20:52:00.882Z,35.63
2018-04-16T20:54:28.395Z,23.80
2018-04-16T20:56:56.500Z,22.33
2018-04-16T20:59:24.171Z,24.23
2018-04-16T21:01:51.670Z,24.60
2018-04-16T21:04:19.675Z,23.03
2018-04-16T21:06:47.180Z,23.30
2018-04-16T21:09:14.999Z,23.33
2018-04-16T21:11:42.879Z,31.40
2018-04-16T21:14:10.377Z,21.27
2018-04-16T21:16:38.684Z,22.03
2018-04-16T21:19:07.640Z,23.57
2018-04-16T21:21:35.593Z,31.60
2018-04-16T21:24:03.099Z,23.07
2018-04-16T21:26:30.993Z,22.40
2018-04-16T21:28:58.521Z,31.73
2018-04-16T21:31:26.837Z,22.37
2018-04-16T21:33:54.350Z,22.80
2018-04-16T21:36:22.959Z,33.67
2018-04-16T21:38:50.512Z,22.20
2018-04-16T21:41:18.119Z,21.57
2018-04-16T21:43:45.748Z,29.50
2018-04-16T21:46:13.267Z,19.97
2018-04-16T21:48:41.060Z,21.53
2018-04-16T21:51:08.568Z,20.00
2018-04-16T21:53:36.837Z,20.13
2018-04-16T21:56:04.375Z,19.87
2018-04-16T21:58:32.117Z,19.27
2018-04-16T22:00:59.622Z,17.50
2018-04-16T22:03:27.118Z,20.20
2018-04-16T22:05:55.509Z,25.00
2018-04-16T22:08:23.249Z,18.67
2018-04-16T22:10:50.743Z,16.30
2018-04-16T22:13:18.526Z,16.07
2018-04-16T22:15:46.394Z,16.33
2018-04-16T22:18:14.369Z,16.83
2018-04-16T22:20:42.084Z,22.57
2018-04-16T22:23:09.818Z,18.47
2018-04-16T22:25:37.349Z,15.97
2018-04-16T22:28:05.170Z,17.67
2018-04-16T22:30:32.721Z,24.00
2018-04-16T22:33:01.422Z,16.57
2018-04-16T22:35:28.919Z,24.23
2018-04-16T22:37:56.744Z,17.60
2018-04-16T22:40:24.246Z,16.60
2018-04-16T22:42:52.076Z,17.10
2018-04-16T22:45:19.594Z,16.17
2018-04-16T22:47:47.389Z,15.77
2018-04-16T22:50:15.336Z,23.83
2018-04-16T22:52:44.788Z,17.73
2018-04-16T22:55:12.533Z,17.90
2018-04-16T22:57:41.103Z,17.90
2018-04-16T23:00:09.378Z,17.77
2018-04-16T23:02:36.882Z,19.97
2018-04-16T23:05:04.680Z,17.23
2018-04-16T23:07:32.173Z,19.23
2018-04-16T23:10:00.351Z,19.70
2018-04-16T23:12:27.849Z,19.33
2018-04-16T23:14:55.357Z,18.40
2018-04-16T23:17:23.369Z,18.87
2018-04-16T23:19:50.861Z,19.43
2018-04-16T23:22:18.525Z,29.97
2018-04-16T23:24:46.035Z,18.90
2018-04-16T23:27:13.708Z,19.23
2018-04-16T23:29:41.170Z,19.70
2018-04-16T23:32:09.010Z,30.23
2018-04-16T23:34:36.505Z,20.07
2018-04-16T23:37:04.301Z,19.87
2018-04-16T23:39:31.976Z,20.13
2018-04-16T23:41:59.762Z,21.50
2018-04-16T23:44:27.654Z,22.63
2018-04-16T23:46:55.187Z,29.97
2018-04-16T23:49:23.098Z,21.13
2018-04-16T23:51:50.738Z,20.83
2018-04-16T23:54:18.548Z,20.53
2018-04-16T23:56:47.340Z,20.80
2018-04-16T23:59:15.204Z,20.90
